Time;durP1;ratioP1;P1;durP2;ratioP2;P2;SDS_P1;SDS_P2;PMS_P1;PMS_P2;Temp;Humidity;BMP_temperature;BMP_pressure;BME280_temperature;BME280_humidity;BME280_pressure;Samples;Min_cycle;Max_cycle;Signal;HPM_P1;HPM_P2
2022/10/01 00:02:08;;;;;;;5.27;4.97;;;10.90;99.90;;;;;;5044336;28;20458;-80
2022/10/01 00:04:38;;;;;;;5.10;4.80;;;10.70;99.90;;;;;;5047658;28;20459;-81
2022/10/01 00:07:09;;;;;;;5.57;5.03;;;10.70;1.00;;;;;;5030397;28;20478;-80
2022/10/01 00:09:38;;;;;;;4.13;3.93;;;10.70;56.00;;;;;;5043542;28;21800;-79
2022/10/01 00:12:07;;;;;;;5.17;4.87;;;10.70;1.00;;;;;;5042062;28;20464;-82
2022/10/01 00:14:38;;;;;;;4.67;4.37;;;10.60;99.90;;;;;;5027994;28;20505;-81
2022/10/01 00:17:06;;;;;;;5.30;4.80;;;10.70;34.70;;;;;;5038260;28;20896;-82
2022/10/01 00:19:34;;;;;;;5.80;5.30;;;10.70;99.90;;;;;;5037047;28;20468;-82
2022/10/01 00:22:02;;;;;;;4.70;4.50;;;10.70;93.90;;;;;;5043429;28;20474;-81
2022/10/01 00:24:30;;;;;;;5.80;5.50;;;10.60;99.90;;;;;;5040802;28;20458;-82
2022/10/01 00:26:59;;;;;;;6.00;5.60;;;10.60;1.00;;;;;;5044670;28;20487;-82
2022/10/01 00:29:28;;;;;;;5.33;5.03;;;10.50;1.00;;;;;;5023577;28;20457;-81
2022/10/01 00:31:57;;;;;;;5.07;4.83;;;10.50;99.90;;;;;;5040532;28;20475;-82
2022/10/01 00:34:27;;;;;;;5.63;5.23;;;10.60;65.60;;;;;;5042050;28;20823;-82
2022/10/01 00:36:55;;;;;;;5.50;5.20;;;10.60;99.90;;;;;;5029060;28;20491;-82
2022/10/01 00:39:23;;;;;;;5.37;5.07;;;10.90;1.00;;;;;;5038847;28;20489;-81
2022/10/01 00:41:51;;;;;;;5.50;5.20;;;10.80;1.00;;;;;;5045142;28;20456;-82
2022/10/01 00:44:35;;;;;;;7.03;5.53;;;10.70;99.90;;;;;;5039991;28;20447;-81
2022/10/01 00:47:12;;;;;;;5.60;5.10;;;10.80;99.90;;;;;;5043787;28;20566;-81
2022/10/01 00:49:42;;;;;;;5.30;5.00;;;10.80;99.90;;;;;;5044825;28;20497;-82
2022/10/01 00:52:16;;;;;;;5.33;4.83;;;10.80;99.90;;;;;;5041723;28;21016;-82
2022/10/01 00:54:49;;;;;;;5.73;5.33;;;10.80;1.00;;;;;;5040107;28;20531;-81
2022/10/01 00:57:21;;;;;;;5.47;5.00;;;10.80;1.00;;;;;;5040262;28;20585;-82
2022/10/01 00:59:54;;;;;;;5.13;4.73;;;10.70;99.90;;;;;;5042302;28;21029;-83
2022/10/01 01:02:22;;;;;;;5.40;5.00;;;10.70;1.00;;;;;;5040641;28;20521;-81
2022/10/01 01:04:50;;;;;;;6.27;5.77;;;10.80;99.90;;;;;;5049364;28;20455;-82
2022/10/01 01:07:20;;;;;;;4.90;4.60;;;10.60;99.90;;;;;;5043039;28;21019;-81
2022/10/01 01:09:51;;;;;;;5.43;5.00;;;10.70;99.90;;;;;;5042353;28;20504;-81
2022/10/01 01:12:37;;;;;;;4.57;4.30;;;10.80;1.00;;;;;;5044515;28;20816;-82
2022/10/01 01:15:14;;;;;;;4.37;4.13;;;10.80;1.00;;;;;;5044113;28;20450;-81
2022/10/01 01:17:51;;;;;;;5.17;4.83;;;10.80;99.90;;;;;;5046481;28;20471;-80
2022/10/01 01:20:41;;;;;;;5.17;4.87;;;10.70;1.00;;;;;;5022874;28;20554;-82
2022/10/01 01:23:34;;;;;;;4.87;4.47;;;10.80;1.00;;;;;;5042645;28;20545;-81
2022/10/01 01:26:15;;;;;;;5.23;4.77;;;10.80;99.90;;;;;;5020562;28;20488;-80
2022/10/01 01:28:47;;;;;;;5.07;4.77;;;10.60;1.00;;;;;;5037744;28;20916;-80
2022/10/01 01:31:20;;;;;;;5.07;4.70;;;10.60;1.00;;;;;;5041166;28;20546;-80
2022/10/01 01:33:51;;;;;;;4.90;4.43;;;10.60;1.00;;;;;;5043394;28;20494;-82
2022/10/01 01:36:34;;;;;;;5.80;5.30;;;10.60;1.00;;;;;;5030749;28;20805;-81
2022/10/01 01:39:05;;;;;;;5.23;4.90;;;10.50;1.00;;;;;;5037906;28;20455;-81
2022/10/01 01:41:37;;;;;;;4.83;4.43;;;10.60;99.90;;;;;;5044489;28;20455;-81
2022/10/01 01:44:12;;;;;;;5.53;5.10;;;10.60;99.90;;;;;;5035878;28;21005;-80
2022/10/01 01:46:44;;;;;;;4.97;4.40;;;10.60;1.00;;;;;;5041820;28;21058;-81
2022/10/01 01:49:16;;;;;;;4.63;4.40;;;10.60;99.90;;;;;;5037805;28;20819;-80
2022/10/01 01:51:51;;;;;;;4.87;4.57;;;10.60;99.90;;;;;;5044707;28;20470;-81
2022/10/01 01:54:20;;;;;;;5.37;4.97;;;10.60;99.90;;;;;;5038641;28;20445;-80
2022/10/01 01:56:49;;;;;;;5.03;4.53;;;10.60;99.90;;;;;;5037797;28;20559;-82
2022/10/01 01:59:19;;;;;;;4.50;4.27;;;10.40;99.90;;;;;;5038431;28;20547;-81
2022/10/01 02:01:48;;;;;;;5.30;4.90;;;10.50;99.90;;;;;;5041598;28;20451;-82
2022/10/01 02:04:21;;;;;;;4.97;4.67;;;10.50;99.90;;;;;;5043414;28;20444;-81
2022/10/01 02:07:15;;;;;;;4.83;4.53;;;10.60;99.90;;;;;;5038941;28;20506;-82
2022/10/01 02:09:52;;;;;;;5.50;5.10;;;10.60;10.10;;;;;;5041575;28;20447;-80
2022/10/01 02:12:31;;;;;;;4.80;4.50;;;10.50;99.90;;;;;;5042479;28;20454;-82
2022/10/01 02:15:08;;;;;;;5.13;4.73;;;10.50;99.90;;;;;;5044124;28;20463;-81
2022/10/01 02:17:49;;;;;;;4.10;3.90;;;10.60;99.90;;;;;;5048054;28;20507;-81
2022/10/01 02:20:24;;;;;;;5.23;4.90;;;10.50;59.00;;;;;;5040238;28;20586;-80
2022/10/01 02:22:57;;;;;;;4.20;3.90;;;10.50;96.00;;;;;;5036747;28;21168;-80
2022/10/01 02:25:29;;;;;;;4.27;4.00;;;10.40;99.90;;;;;;5037126;28;20463;-81
2022/10/01 02:28:01;;;;;;;4.80;4.17;;;10.60;1.00;;;;;;5040806;28;21053;-81
2022/10/01 02:30:34;;;;;;;4.40;4.10;;;10.50;1.00;;;;;;5038748;28;20506;-81
2022/10/01 02:33:04;;;;;;;4.20;4.00;;;10.40;1.00;;;;;;5043368;28;20513;-80
2022/10/01 02:35:34;;;;;;;4.00;3.70;;;10.50;1.00;;;;;;5025775;28;20459;-81
2022/10/01 02:38:05;;;;;;;3.77;3.57;;;10.60;1.00;;;;;;5045777;28;20878;-81
2022/10/01 02:40:37;;;;;;;3.93;3.67;;;10.60;1.00;;;;;;5044038;28;20464;-81
2022/10/01 02:43:10;;;;;;;3.97;3.67;;;10.60;1.00;;;;;;5048156;28;20458;-81
2022/10/01 02:45:42;;;;;;;4.30;3.90;;;10.60;1.00;;;;;;5042210;28;20452;-82
2022/10/01 02:48:12;;;;;;;3.87;3.57;;;10.50;1.00;;;;;;5041095;28;20490;-81
2022/10/01 02:50:48;;;;;;;4.90;4.60;;;10.60;1.00;;;;;;5040679;28;20540;-82
2022/10/01 02:53:20;;;;;;;3.67;3.37;;;10.60;99.90;;;;;;5029301;28;20459;-82
2022/10/01 02:55:50;;;;;;;4.03;3.83;;;10.40;1.00;;;;;;5027632;28;20991;-82
2022/10/01 02:58:18;;;;;;;4.23;3.83;;;10.50;1.00;;;;;;5049102;28;20459;-81
2022/10/01 03:00:48;;;;;;;3.57;3.33;;;10.60;99.90;;;;;;5046003;28;20493;-81
2022/10/01 03:03:16;;;;;;;3.47;3.23;;;10.60;99.90;;;;;;5045489;28;20550;-82
2022/10/01 03:05:44;;;;;;;3.30;3.10;;;10.60;99.90;;;;;;5047265;28;20513;-82
2022/10/01 03:08:12;;;;;;;3.77;3.57;;;10.50;99.90;;;;;;5044274;28;20547;-82
2022/10/01 03:10:40;;;;;;;3.47;3.37;;;10.60;99.90;;;;;;5040100;28;20904;-81
2022/10/01 03:13:13;;;;;;;3.27;3.07;;;10.50;99.90;;;;;;5047128;28;20562;-82
2022/10/01 03:15:41;;;;;;;3.33;3.03;;;10.60;99.90;;;;;;5043796;28;20455;-84
2022/10/01 03:18:11;;;;;;;2.53;2.43;;;10.70;99.90;;;;;;5049341;28;20449;-82
2022/10/01 03:20:39;;;;;;;3.50;3.30;;;10.70;99.90;;;;;;5047070;28;20462;-82
2022/10/01 03:23:07;;;;;;;4.47;4.27;;;10.70;99.90;;;;;;5041808;28;20502;-82
2022/10/01 03:25:35;;;;;;;3.17;2.97;;;10.70;99.90;;;;;;5043244;28;20491;-82
2022/10/01 03:28:03;;;;;;;3.40;3.17;;;10.40;99.90;;;;;;5036022;28;20508;-82
2022/10/01 03:30:32;;;;;;;3.50;3.20;;;10.40;99.90;;;;;;5042405;28;20499;-82
2022/10/01 03:33:00;;;;;;;3.20;3.00;;;10.50;99.90;;;;;;5047130;28;20587;-81
2022/10/01 03:35:31;;;;;;;2.77;2.67;;;10.50;99.90;;;;;;5044880;28;21029;-82
2022/10/01 03:37:59;;;;;;;2.80;2.63;;;10.50;99.90;;;;;;5046293;28;20566;-81
2022/10/01 03:40:27;;;;;;;3.07;2.87;;;10.50;99.90;;;;;;5043510;28;20483;-82
2022/10/01 03:42:55;;;;;;;3.67;3.37;;;10.40;99.90;;;;;;5047350;28;20552;-82
2022/10/01 03:45:23;;;;;;;2.70;2.60;;;10.40;99.90;;;;;;5044403;28;20898;-81
2022/10/01 03:47:52;;;;;;;3.57;3.30;;;10.40;99.90;;;;;;5039437;28;20933;-82
2022/10/01 03:50:20;;;;;;;5.60;3.40;;;10.40;99.90;;;;;;5043763;28;20539;-82
2022/10/01 03:52:50;;;;;;;3.57;3.37;;;10.30;99.90;;;;;;5045309;28;20517;-81
2022/10/01 03:55:18;;;;;;;3.70;3.50;;;10.30;99.90;;;;;;5045638;28;20926;-81
2022/10/01 03:57:47;;;;;;;3.73;3.40;;;10.30;1.00;;;;;;5047793;28;20479;-81
2022/10/01 04:00:17;;;;;;;3.77;3.47;;;10.20;1.00;;;;;;5039882;28;20845;-81
2022/10/01 04:02:45;;;;;;;3.27;3.07;;;10.40;99.90;;;;;;5042492;28;20453;-80
2022/10/01 04:05:13;;;;;;;3.07;2.90;;;10.30;99.90;;;;;;5042406;28;20456;-81
2022/10/01 04:07:42;;;;;;;2.73;2.60;;;10.30;1.00;;;;;;5042260;28;20480;-81
2022/10/01 04:10:12;;;;;;;3.33;2.73;;;10.30;1.00;;;;;;5038838;28;20456;-82
2022/10/01 04:12:40;;;;;;;3.37;3.17;;;10.30;99.90;;;;;;5045216;28;20467;-81
2022/10/01 04:15:09;;;;;;;3.30;3.10;;;10.30;99.90;;;;;;5045792;28;20494;-82
2022/10/01 04:17:37;;;;;;;2.43;2.33;;;10.30;99.90;;;;;;5049334;28;20460;-82
2022/10/01 04:20:10;;;;;;;3.27;2.97;;;10.30;99.90;;;;;;5048782;28;20489;-81
2022/10/01 04:22:40;;;;;;;3.23;3.03;;;10.50;99.90;;;;;;5043926;28;20444;-81
2022/10/01 04:25:11;;;;;;;2.60;2.47;;;10.20;99.90;;;;;;5037817;28;20546;-81
2022/10/01 04:27:40;;;;;;;2.80;2.60;;;10.20;99.90;;;;;;5046304;28;20472;-82
2022/10/01 04:30:10;;;;;;;3.03;2.73;;;10.30;99.90;;;;;;5045752;28;20483;-84
2022/10/01 04:32:38;;;;;;;2.23;2.13;;;10.40;99.90;;;;;;5037838;28;20448;-82
2022/10/01 04:35:10;;;;;;;2.27;2.17;;;10.30;99.90;;;;;;5043351;28;21226;-82
2022/10/01 04:37:38;;;;;;;2.60;2.10;;;10.40;99.90;;;;;;5042802;28;20587;-82
2022/10/01 04:40:08;;;;;;;2.50;2.40;;;10.50;99.90;;;;;;5047849;28;21473;-82
2022/10/01 04:42:42;;;;;;;2.10;2.00;;;10.40;99.90;;;;;;5045894;28;20974;-82
2022/10/01 04:45:12;;;;;;;2.93;2.80;;;10.40;99.90;;;;;;5041327;28;20451;-81
2022/10/01 04:47:48;;;;;;;3.00;2.20;;;10.40;99.90;;;;;;5043982;28;20498;-81
2022/10/01 04:50:16;;;;;;;2.13;2.03;;;10.50;99.90;;;;;;5040744;28;20478;-81
2022/10/01 04:52:45;;;;;;;2.50;2.40;;;10.50;99.90;;;;;;5046189;28;20454;-81
2022/10/01 04:55:14;;;;;;;2.37;2.17;;;10.40;99.90;;;;;;5048450;28;20477;-80
2022/10/01 04:57:44;;;;;;;3.00;2.20;;;10.50;99.90;;;;;;5044771;28;20514;-81
2022/10/01 05:00:15;;;;;;;2.30;2.20;;;10.60;99.90;;;;;;5047201;28;20517;-81
2022/10/01 05:02:45;;;;;;;2.30;2.10;;;10.60;50.00;;;;;;5042552;28;21312;-81
2022/10/01 05:05:13;;;;;;;2.63;2.53;;;10.50;99.90;;;;;;5042522;28;20451;-81
2022/10/01 05:07:42;;;;;;;2.40;2.30;;;10.60;83.60;;;;;;5045246;28;20484;-81
2022/10/01 05:10:13;;;;;;;2.20;2.00;;;10.50;58.90;;;;;;5040984;28;20504;-81
2022/10/01 05:12:41;;;;;;;2.60;2.50;;;10.60;10.90;;;;;;5041445;28;20459;-81
2022/10/01 05:15:11;;;;;;;1.90;1.80;;;10.60;25.10;;;;;;5045656;28;20567;-81
2022/10/01 05:17:40;;;;;;;2.20;2.10;;;10.50;17.90;;;;;;5037489;28;20472;-81
2022/10/01 05:20:17;;;;;;;2.20;2.10;;;10.50;21.90;;;;;;5041037;28;20538;-80
2022/10/01 05:22:47;;;;;;;2.30;2.20;;;10.50;19.90;;;;;;5041554;28;20485;-80
2022/10/01 05:25:16;;;;;;;2.40;2.20;;;10.50;16.70;;;;;;5041910;28;20455;-81
2022/10/01 05:27:44;;;;;;;2.03;1.93;;;10.50;1.00;;;;;;5046499;28;20577;-80
2022/10/01 05:30:18;;;;;;;2.13;2.03;;;10.50;2.90;;;;;;5042099;28;20537;-80
2022/10/01 05:32:55;;;;;;;1.90;1.80;;;10.60;51.80;;;;;;5047273;28;20460;-81
2022/10/01 05:35:23;;;;;;;2.23;2.13;;;10.70;5.00;;;;;;5041886;28;20477;-80
2022/10/01 05:37:55;;;;;;;2.23;2.13;;;10.60;1.00;;;;;;5038341;28;20474;-81
2022/10/01 05:40:26;;;;;;;2.13;2.03;;;10.60;1.00;;;;;;5041264;28;20473;-81
2022/10/01 05:42:55;;;;;;;1.97;1.87;;;10.70;1.00;;;;;;5045449;28;20560;-80
2022/10/01 05:45:25;;;;;;;2.60;2.43;;;10.70;1.00;;;;;;5044700;28;21437;-82
2022/10/01 05:47:57;;;;;;;2.40;2.20;;;10.70;1.00;;;;;;5043295;28;20481;-82
2022/10/01 05:50:26;;;;;;;2.67;2.47;;;10.70;1.00;;;;;;5040072;28;20489;-81
2022/10/01 05:52:54;;;;;;;2.40;2.20;;;10.70;1.00;;;;;;5042971;28;20501;-80
2022/10/01 05:55:23;;;;;;;2.53;2.40;;;10.60;1.00;;;;;;5040407;28;20591;-82
2022/10/01 05:57:58;;;;;;;2.20;2.00;;;10.60;1.00;;;;;;5043514;28;20481;-80
2022/10/01 06:00:29;;;;;;;2.73;2.10;;;10.50;1.00;;;;;;5044255;28;20449;-80
2022/10/01 06:02:58;;;;;;;2.57;2.10;;;10.60;1.00;;;;;;5045843;28;20487;-80
2022/10/01 06:05:28;;;;;;;2.33;2.23;;;10.60;1.00;;;;;;5048029;28;20447;-79
2022/10/01 06:07:56;;;;;;;2.10;1.90;;;10.60;1.00;;;;;;5039887;28;20837;-80
2022/10/01 06:10:26;;;;;;;1.80;1.70;;;10.60;1.00;;;;;;5044662;28;20484;-81
2022/10/01 06:12:59;;;;;;;1.80;1.70;;;10.60;1.00;;;;;;5043077;28;20458;-81
2022/10/01 06:15:28;;;;;;;1.97;1.87;;;10.60;1.00;;;;;;5040462;28;20461;-80
2022/10/01 06:17:56;;;;;;;2.20;2.10;;;10.70;1.00;;;;;;5047314;28;20476;-82
2022/10/01 06:20:24;;;;;;;2.67;2.47;;;10.70;1.00;;;;;;5032188;28;21158;-80
2022/10/01 06:22:55;;;;;;;2.27;2.17;;;10.60;12.40;;;;;;5050560;28;20881;-81
2022/10/01 06:25:24;;;;;;;1.90;1.80;;;10.60;18.30;;;;;;5045625;28;20450;-80
2022/10/01 06:27:54;;;;;;;2.10;2.00;;;10.50;26.10;;;;;;5048207;28;22278;-82
2022/10/01 06:30:22;;;;;;;2.17;2.00;;;10.60;37.00;;;;;;5050728;28;21028;-81
2022/10/01 06:32:52;;;;;;;2.60;2.17;;;10.60;41.90;;;;;;5050317;28;21227;-81
2022/10/01 06:35:20;;;;;;;2.63;2.17;;;10.70;16.50;;;;;;5060313;28;20475;-81
2022/10/01 06:37:48;;;;;;;2.40;2.20;;;10.70;1.00;;;;;;5032310;28;20574;-81
2022/10/01 06:40:17;;;;;;;2.00;1.90;;;10.70;1.00;;;;;;5047041;28;20444;-81
2022/10/01 06:42:47;;;;;;;2.53;2.43;;;10.70;1.00;;;;;;5050083;28;20451;-82
2022/10/01 06:45:16;;;;;;;2.20;2.10;;;10.80;1.00;;;;;;5048091;28;20479;-82
2022/10/01 06:47:45;;;;;;;2.33;2.23;;;10.80;1.00;;;;;;5041586;28;21065;-81
2022/10/01 06:50:14;;;;;;;2.10;2.00;;;10.70;1.00;;;;;;5038937;28;20532;-82
2022/10/01 06:52:50;;;;;;;2.37;2.17;;;10.80;1.00;;;;;;5022212;28;20451;-81
2022/10/01 06:55:19;;;;;;;1.80;1.70;;;10.80;1.00;;;;;;5042293;28;20836;-82
2022/10/01 06:57:49;;;;;;;1.93;1.90;;;10.80;1.00;;;;;;5037264;28;20525;-81
2022/10/01 07:00:17;;;;;;;2.73;2.20;;;10.80;1.00;;;;;;5040333;28;20497;-82
2022/10/01 07:02:45;;;;;;;1.83;1.73;;;10.90;1.00;;;;;;5042252;28;20462;-81
2022/10/01 07:05:15;;;;;;;2.17;2.07;;;10.90;1.00;;;;;;5042199;28;20543;-82
2022/10/01 07:07:44;;;;;;;2.67;1.87;;;11.00;1.00;;;;;;5040721;28;20936;-81
2022/10/01 07:10:12;;;;;;;2.37;2.27;;;10.90;1.00;;;;;;5044674;28;20492;-81
2022/10/01 07:12:40;;;;;;;2.40;2.20;;;11.00;1.00;;;;;;5044513;28;20484;-81
2022/10/01 07:15:09;;;;;;;1.93;1.70;;;11.00;1.00;;;;;;5046624;28;20509;-81
2022/10/01 07:17:44;;;;;;;1.50;1.47;;;11.00;1.00;;;;;;5043155;28;20467;-81
2022/10/01 07:20:13;;;;;;;3.43;1.80;;;11.00;1.00;;;;;;5025738;28;20480;-82
2022/10/01 07:22:43;;;;;;;1.90;1.80;;;11.00;1.00;;;;;;5049731;28;20451;-82
2022/10/01 07:25:11;;;;;;;1.83;1.73;;;11.00;1.00;;;;;;5053779;28;20446;-81
2022/10/01 07:27:40;;;;;;;1.70;1.70;;;11.00;1.00;;;;;;5055286;28;20510;-81
2022/10/01 07:30:09;;;;;;;1.80;1.70;;;11.10;1.00;;;;;;5047862;28;21006;-82
2022/10/01 07:32:37;;;;;;;2.07;1.97;;;11.00;1.00;;;;;;5048758;28;20533;-81
2022/10/01 07:35:07;;;;;;;2.20;2.10;;;10.90;1.00;;;;;;5047642;28;20455;-81
2022/10/01 07:37:36;;;;;;;2.60;2.43;;;10.90;75.90;;;;;;5049131;28;21049;-81
2022/10/01 07:40:07;;;;;;;2.80;1.77;;;11.00;99.90;;;;;;5052307;28;20479;-81
2022/10/01 07:42:37;;;;;;;2.60;2.50;;;11.00;99.90;;;;;;5049617;28;20838;-81
2022/10/01 07:45:06;;;;;;;2.13;2.03;;;10.80;99.90;;;;;;5055332;28;20460;-82
2022/10/01 07:47:34;;;;;;;2.23;2.10;;;10.90;99.90;;;;;;5060523;28;20690;-82
2022/10/01 07:50:03;;;;;;;2.50;2.37;;;10.90;99.90;;;;;;5056384;28;20538;-80
2022/10/01 07:52:31;;;;;;;2.23;2.13;;;10.80;99.90;;;;;;5054328;28;20481;-80
2022/10/01 07:55:00;;;;;;;2.50;2.30;;;10.90;1.00;;;;;;5053019;28;20512;-81
2022/10/01 07:57:30;;;;;;;2.60;2.50;;;10.80;1.00;;;;;;5047082;28;20479;-81
2022/10/01 07:59:58;;;;;;;3.50;2.20;;;10.80;99.90;;;;;;5053126;28;21076;-81
2022/10/01 08:02:26;;;;;;;2.20;2.10;;;10.80;1.00;;;;;;5052686;28;20446;-81
2022/10/01 08:07:40;;;;;;;2.17;2.07;;;10.50;1.00;;;;;;5046661;28;20931;-81
2022/10/01 08:10:08;;;;;;;2.60;2.50;;;10.80;99.90;;;;;;5049256;28;20443;-81
2022/10/01 08:12:38;;;;;;;2.90;2.70;;;10.70;99.90;;;;;;5052262;28;20448;-82
2022/10/01 08:15:09;;;;;;;2.63;2.53;;;10.70;1.00;;;;;;5049598;28;20450;-81
2022/10/01 08:17:37;;;;;;;2.83;2.63;;;10.70;99.90;;;;;;5051840;28;20476;-81
2022/10/01 08:20:08;;;;;;;3.00;2.90;;;10.80;1.00;;;;;;5043421;28;20821;-80
2022/10/01 08:22:36;;;;;;;2.93;2.83;;;10.70;99.90;;;;;;5049653;28;20518;-81
2022/10/01 08:25:10;;;;;;;3.27;3.17;;;10.70;99.90;;;;;;5051570;28;20465;-81
2022/10/01 08:27:39;;;;;;;3.60;3.40;;;10.80;1.00;;;;;;5043731;28;20507;-82
2022/10/01 08:30:09;;;;;;;3.83;3.53;;;10.80;30.50;;;;;;5046709;28;20497;-82
2022/10/01 08:32:37;;;;;;;3.70;3.40;;;10.60;99.90;;;;;;5048973;28;20943;-81
2022/10/01 08:35:06;;;;;;;4.10;4.00;;;10.60;1.00;;;;;;5046816;28;20489;-81
2022/10/01 08:37:34;;;;;;;3.90;3.70;;;10.60;99.90;;;;;;5047480;28;20494;-82
2022/10/01 08:40:02;;;;;;;4.90;4.60;;;10.70;1.00;;;;;;5035863;28;20456;-81
2022/10/01 08:42:53;;;;;;;4.30;4.10;;;10.60;1.00;;;;;;5047439;28;20454;-80
2022/10/01 08:45:26;;;;;;;4.63;4.27;;;10.70;1.00;;;;;;5048465;28;20456;-81
2022/10/01 08:48:03;;;;;;;4.80;4.60;;;10.60;99.90;;;;;;5043836;28;20469;-83
2022/10/01 08:50:40;;;;;;;4.70;4.50;;;10.70;44.70;;;;;;5045916;28;20472;-81
2022/10/01 08:53:15;;;;;;;4.50;4.40;;;10.60;99.90;;;;;;5042912;28;20455;-81
2022/10/01 08:55:44;;;;;;;4.70;4.60;;;10.60;99.90;;;;;;5050004;28;20508;-80
2022/10/01 08:58:23;;;;;;;5.20;5.10;;;10.60;99.90;;;;;;5048866;28;20475;-80
2022/10/01 09:00:51;;;;;;;5.13;5.03;;;10.70;99.90;;;;;;5047660;28;20462;-79
2022/10/01 09:03:20;;;;;;;5.20;4.80;;;10.70;1.00;;;;;;5047481;28;20466;-77
2022/10/01 09:05:57;;;;;;;6.17;5.90;;;10.90;99.90;;;;;;5041955;28;20554;-77
2022/10/01 09:08:43;;;;;;;5.77;5.57;;;10.90;99.90;;;;;;5044774;28;20466;-77
2022/10/01 09:11:24;;;;;;;5.50;5.40;;;10.90;1.00;;;;;;5040776;28;20489;-77
2022/10/01 09:14:13;;;;;;;5.67;5.50;;;10.90;1.00;;;;;;5034464;28;20455;-77
2022/10/01 09:16:49;;;;;;;6.20;6.10;;;10.80;1.00;;;;;;5045711;28;20474;-78
2022/10/01 09:19:34;;;;;;;6.27;6.17;;;10.90;1.00;;;;;;5044432;28;20493;-78
2022/10/01 09:22:10;;;;;;;7.90;7.60;;;11.00;1.00;;;;;;5014277;28;20464;-78
2022/10/01 09:24:44;;;;;;;6.30;6.10;;;11.00;1.00;;;;;;5043525;28;20469;-78
2022/10/01 09:27:15;;;;;;;6.13;6.03;;;11.10;1.00;;;;;;5034206;28;20488;-78
2022/10/01 09:29:51;;;;;;;6.60;6.50;;;11.00;1.00;;;;;;5044767;28;20904;-77
2022/10/01 09:32:24;;;;;;;6.50;6.40;;;11.00;1.00;;;;;;5021278;28;20612;-78
2022/10/01 09:34:54;;;;;;;6.80;6.70;;;11.10;1.00;;;;;;5044027;28;20678;-78
2022/10/01 09:37:35;;;;;;;6.90;6.70;;;11.00;1.00;;;;;;5044087;28;20511;-78
2022/10/01 09:40:15;;;;;;;7.17;7.00;;;11.10;1.00;;;;;;5044543;28;20459;-78
2022/10/01 09:42:46;;;;;;;7.20;7.10;;;11.10;1.00;;;;;;5029498;28;20967;-79
2022/10/01 09:45:17;;;;;;;7.70;7.50;;;11.20;1.00;;;;;;5043167;28;20476;-78
2022/10/01 09:47:50;;;;;;;8.27;8.07;;;11.30;1.00;;;;;;5043800;28;20502;-78
2022/10/01 09:50:24;;;;;;;7.77;7.57;;;11.40;1.00;;;;;;5037654;28;20497;-78
2022/10/01 09:52:55;;;;;;;7.40;7.30;;;11.50;1.00;;;;;;5040462;28;20470;-76
2022/10/01 09:55:30;;;;;;;8.30;8.00;;;11.50;1.00;;;;;;5040591;28;20459;-78
2022/10/01 09:58:01;;;;;;;8.57;8.37;;;11.40;1.00;;;;;;5039095;28;20476;-78
2022/10/01 10:00:32;;;;;;;8.00;7.80;;;11.50;1.00;;;;;;5041161;28;20468;-78
2022/10/01 10:03:01;;;;;;;8.57;8.37;;;11.50;1.00;;;;;;5043967;28;20449;-77
2022/10/01 10:05:39;;;;;;;8.03;7.93;;;11.60;1.00;;;;;;5042379;28;20467;-78
2022/10/01 10:08:13;;;;;;;8.23;8.03;;;11.50;1.00;;;;;;5040580;28;20467;-77
2022/10/01 10:10:51;;;;;;;8.30;8.20;;;11.60;1.00;;;;;;5046508;28;20480;-77
2022/10/01 10:13:30;;;;;;;8.53;8.43;;;11.50;1.00;;;;;;5045977;28;20488;-77
2022/10/01 10:16:06;;;;;;;9.27;9.07;;;11.50;1.00;;;;;;5046885;28;20471;-78
2022/10/01 10:18:37;;;;;;;8.67;8.50;;;11.60;1.00;;;;;;5030790;28;20461;-78
2022/10/01 10:21:08;;;;;;;8.70;8.60;;;11.70;1.00;;;;;;5036167;28;20972;-77
2022/10/01 10:23:47;;;;;;;8.30;8.20;;;11.60;1.00;;;;;;5035905;28;20558;-78
2022/10/01 10:26:20;;;;;;;7.70;7.60;;;11.50;1.00;;;;;;5023086;28;20552;-77
2022/10/01 10:28:48;;;;;;;7.60;7.40;;;11.60;1.00;;;;;;5040433;28;20490;-77
2022/10/01 10:31:22;;;;;;;8.00;7.90;;;11.70;1.00;;;;;;5037917;28;20880;-79
2022/10/01 10:33:54;;;;;;;8.17;7.97;;;11.50;1.00;;;;;;5018156;28;20525;-77
2022/10/01 10:36:27;;;;;;;9.30;9.10;;;11.50;1.00;;;;;;5039591;28;20525;-77
2022/10/01 10:38:57;;;;;;;9.07;8.87;;;11.50;1.00;;;;;;5030017;28;20804;-78
2022/10/01 10:41:27;;;;;;;9.50;9.20;;;11.50;1.00;;;;;;5027533;28;20447;-77
2022/10/01 10:43:59;;;;;;;9.47;9.17;;;11.60;1.00;;;;;;5039611;28;20454;-78
2022/10/01 10:46:32;;;;;;;9.27;9.17;;;11.60;1.00;;;;;;5043959;28;20474;-78
2022/10/01 10:49:09;;;;;;;9.90;9.70;;;11.60;1.00;;;;;;5036992;28;20454;-78
2022/10/01 10:51:47;;;;;;;9.57;9.37;;;11.70;1.00;;;;;;5037965;28;20461;-79
2022/10/01 10:54:21;;;;;;;9.60;9.40;;;11.80;1.00;;;;;;5029404;28;20451;-78
2022/10/01 10:56:58;;;;;;;9.80;9.63;;;11.70;1.00;;;;;;5040514;28;20477;-77
2022/10/01 10:59:26;;;;;;;10.07;9.87;;;11.80;1.00;;;;;;5041132;28;20457;-78
2022/10/01 11:01:56;;;;;;;10.07;9.67;;;11.90;1.00;;;;;;5038197;28;20447;-77
2022/10/01 11:04:32;;;;;;;10.00;9.90;;;11.90;1.00;;;;;;5021811;28;20459;-78
2022/10/01 11:07:01;;;;;;;9.57;9.40;;;11.90;1.00;;;;;;5041804;28;20486;-78
2022/10/01 11:09:42;;;;;;;10.30;10.10;;;11.80;1.00;;;;;;5036825;28;20452;-78
2022/10/01 11:12:19;;;;;;;10.20;10.00;;;11.80;1.00;;;;;;5039996;28;20536;-78
2022/10/01 11:14:59;;;;;;;10.40;10.20;;;11.90;1.00;;;;;;5041514;28;20439;-78
2022/10/01 11:17:48;;;;;;;9.80;9.60;;;12.00;1.00;;;;;;5051112;28;20297;-77
2022/10/01 11:20:32;;;;;;;9.50;9.30;;;12.00;1.00;;;;;;5037116;28;20475;-78
2022/10/01 11:23:21;;;;;;;9.70;9.50;;;11.90;1.00;;;;;;5040246;28;21230;-78
2022/10/01 11:26:02;;;;;;;9.50;9.40;;;11.80;1.00;;;;;;5043341;28;20452;-79
2022/10/01 11:28:44;;;;;;;9.90;9.70;;;11.90;1.00;;;;;;5041191;28;20460;-77
2022/10/01 11:31:26;;;;;;;9.67;9.47;;;12.00;1.00;;;;;;5038924;28;22459;-78
2022/10/01 11:34:06;;;;;;;10.17;9.97;;;12.00;1.00;;;;;;5040334;28;20491;-78
2022/10/01 11:36:43;;;;;;;10.20;10.00;;;12.00;1.00;;;;;;5043039;28;20488;-76
2022/10/01 11:39:15;;;;;;;9.53;9.33;;;12.00;1.00;;;;;;5049098;28;20981;-77
2022/10/01 11:41:46;;;;;;;9.87;9.67;;;11.90;1.00;;;;;;5051507;28;20552;-77
2022/10/01 11:44:20;;;;;;;9.93;9.73;;;11.90;1.00;;;;;;5050835;28;20493;-78
2022/10/01 11:46:58;;;;;;;9.63;9.53;;;11.80;1.00;;;;;;5050069;28;20566;-77
2022/10/01 11:49:52;;;;;;;9.73;9.53;;;11.90;1.00;;;;;;5046506;28;20462;-77
2022/10/01 11:52:33;;;;;;;9.80;9.60;;;11.80;1.00;;;;;;5047939;28;20483;-78
2022/10/01 12:01:09;;;;;;;10.73;10.53;;;11.90;1.00;;;;;;4964293;28;20463;-78
2022/10/01 12:04:01;;;;;;;9.90;9.70;;;12.00;1.00;;;;;;5014888;28;20572;-77
2022/10/01 12:06:36;;;;;;;10.97;10.67;;;12.10;1.00;;;;;;5045006;28;21084;-77
2022/10/01 12:09:13;;;;;;;10.53;10.33;;;12.10;1.00;;;;;;5047658;28;20448;-78
2022/10/01 12:11:48;;;;;;;11.40;11.20;;;12.00;1.00;;;;;;5050649;28;20504;-76
2022/10/01 12:14:19;;;;;;;10.90;10.60;;;12.20;1.00;;;;;;5044975;28;20478;-77
2022/10/01 12:16:52;;;;;;;11.10;10.90;;;12.20;1.00;;;;;;5052135;28;20484;-76
2022/10/01 12:19:24;;;;;;;10.10;10.00;;;12.30;1.00;;;;;;5049516;28;20463;-77
2022/10/01 12:21:57;;;;;;;10.70;10.40;;;12.30;1.00;;;;;;5040491;28;20549;-77
2022/10/01 12:24:30;;;;;;;10.10;9.90;;;12.30;1.00;;;;;;5040218;28;20444;-77
2022/10/01 12:27:09;;;;;;;10.63;10.43;;;12.30;1.00;;;;;;5040514;28;20849;-77
2022/10/01 12:29:46;;;;;;;11.33;10.93;;;12.30;1.00;;;;;;5035932;28;20877;-78
2022/10/01 12:32:23;;;;;;;11.07;10.87;;;12.30;1.00;;;;;;5039745;28;20541;-76
2022/10/01 12:35:01;;;;;;;10.73;10.53;;;12.30;1.00;;;;;;5037996;28;20460;-78
2022/10/01 12:37:43;;;;;;;10.87;10.67;;;12.50;1.00;;;;;;5017894;28;20499;-77
2022/10/01 12:40:27;;;;;;;10.30;10.10;;;12.40;1.00;;;;;;5034581;28;20501;-78
2022/10/01 12:43:24;;;;;;;10.60;10.40;;;12.40;1.00;;;;;;5044800;28;20445;-77
2022/10/01 12:46:01;;;;;;;11.23;11.00;;;12.30;1.00;;;;;;5036381;28;20797;-78
2022/10/01 12:48:40;;;;;;;11.23;11.03;;;12.40;1.00;;;;;;5040204;28;20460;-77
2022/10/01 12:51:31;;;;;;;10.50;10.30;;;12.40;1.00;;;;;;5044262;28;20508;-76
2022/10/01 12:54:10;;;;;;;11.00;10.80;;;12.30;1.00;;;;;;5038965;28;20573;-78
2022/10/01 12:56:45;;;;;;;11.00;10.80;;;12.50;1.00;;;;;;5035623;28;20822;-76
2022/10/01 12:59:40;;;;;;;11.17;10.97;;;12.60;1.00;;;;;;5039463;28;20457;-78
2022/10/01 13:02:27;;;;;;;11.30;11.10;;;12.60;1.00;;;;;;5034129;28;20486;-78
2022/10/01 13:05:18;;;;;;;11.20;11.00;;;12.60;1.00;;;;;;5035308;28;20486;-78
2022/10/01 13:08:06;;;;;;;12.27;11.97;;;12.60;1.00;;;;;;5039423;28;20473;-78
2022/10/01 13:10:58;;;;;;;11.80;11.60;;;12.70;1.00;;;;;;5040793;28;20976;-79
2022/10/01 13:13:31;;;;;;;11.80;11.60;;;12.80;1.00;;;;;;5041300;28;20978;-78
2022/10/01 13:16:07;;;;;;;12.30;12.10;;;12.80;1.00;;;;;;5044022;28;20481;-78
2022/10/01 13:18:50;;;;;;;12.60;12.20;;;12.80;99.90;;;;;;5041978;28;20458;-78
2022/10/01 13:21:31;;;;;;;11.87;11.60;;;12.90;99.90;;;;;;5040448;28;20506;-78
2022/10/01 13:24:03;;;;;;;11.87;11.67;;;13.00;99.90;;;;;;5038064;28;20664;-79
2022/10/01 13:26:41;;;;;;;11.50;11.30;;;13.10;99.90;;;;;;5038240;28;20474;-79
2022/10/01 13:29:21;;;;;;;11.80;11.60;;;13.10;1.00;;;;;;5036159;28;20469;-79